Time;durP1;ratioP1;P1;durP2;ratioP2;P2;SDS_P1;SDS_P2;PMS_P1;PMS_P2;Temp;Humidity;BMP_temperature;BMP_pressure;BME280_temperature;BME280_humidity;BME280_pressure;Samples;Min_cycle;Max_cycle;Signal;HPM_P1;HPM_P2
2022/07/27 00:01:09;;;;;;;91.53;87.07;;;17.70;99.90;;;;;;4991368;28;20214;-67
2022/07/27 00:03:35;;;;;;;83.03;78.97;;;17.60;99.90;;;;;;4991051;28;20883;-67
2022/07/27 00:06:00;;;;;;;50.87;48.13;;;17.60;99.90;;;;;;4990929;28;20177;-66
2022/07/27 00:08:26;;;;;;;59.47;56.23;;;17.50;99.90;;;;;;4994503;28;20186;-68
2022/07/27 00:10:52;;;;;;;99.07;93.97;;;17.50;99.90;;;;;;4995088;28;20270;-67
2022/07/27 00:13:18;;;;;;;118.57;112.80;;;17.60;99.90;;;;;;4995046;28;20185;-67
2022/07/27 00:15:44;;;;;;;110.37;105.00;;;17.60;99.90;;;;;;4995372;28;20664;-68
2022/07/27 00:18:10;;;;;;;113.40;107.80;;;17.60;99.90;;;;;;4994580;28;20226;-67
2022/07/27 00:20:38;;;;;;;103.67;98.33;;;17.70;99.90;;;;;;4995107;28;20720;-67
2022/07/27 00:23:04;;;;;;;101.90;96.37;;;17.80;99.90;;;;;;4977672;28;20192;-67
2022/07/27 00:25:30;;;;;;;59.57;56.63;;;17.80;99.90;;;;;;4977545;28;20195;-67
2022/07/27 00:27:56;;;;;;;51.00;48.47;;;17.80;99.90;;;;;;4993920;28;20188;-67
2022/07/27 00:30:22;;;;;;;58.50;55.57;;;17.80;99.90;;;;;;4995285;28;20197;-67
2022/07/27 00:32:48;;;;;;;73.20;69.50;;;17.80;99.90;;;;;;4994962;28;20187;-67
2022/07/27 00:35:13;;;;;;;63.00;59.77;;;17.80;99.90;;;;;;4994505;28;20184;-67
2022/07/27 00:37:39;;;;;;;54.40;51.60;;;17.80;99.90;;;;;;4993955;28;20180;-67
2022/07/27 00:40:06;;;;;;;59.03;56.00;;;17.70;99.90;;;;;;4994392;28;20204;-67
2022/07/27 00:42:32;;;;;;;47.10;44.73;;;17.70;99.90;;;;;;4994687;28;20176;-67
2022/07/27 00:44:58;;;;;;;46.60;43.97;;;17.60;99.90;;;;;;4994528;28;20207;-67
2022/07/27 00:47:25;;;;;;;44.93;42.73;;;17.50;99.90;;;;;;4993891;28;20646;-67
2022/07/27 00:49:51;;;;;;;44.27;42.10;;;17.50;99.90;;;;;;4994234;28;20200;-67
2022/07/27 00:52:17;;;;;;;79.27;75.27;;;17.30;99.90;;;;;;4994681;28;20272;-67
2022/07/27 00:54:44;;;;;;;95.30;90.50;;;17.30;99.90;;;;;;4994326;28;20284;-68
2022/07/27 00:57:12;;;;;;;105.27;100.17;;;17.10;99.90;;;;;;4993782;28;20173;-68
2022/07/27 00:59:38;;;;;;;40.13;38.03;;;17.00;99.90;;;;;;4993946;28;20219;-68
2022/07/27 01:02:05;;;;;;;30.00;28.40;;;17.00;99.90;;;;;;4994421;28;20673;-68
2022/07/27 01:04:31;;;;;;;18.30;17.20;;;17.00;99.90;;;;;;4994289;28;20180;-68
2022/07/27 01:06:57;;;;;;;19.53;18.37;;;17.00;99.90;;;;;;4993781;28;20198;-68
2022/07/27 01:12:12;;;;;;;17.40;16.40;;;17.00;99.90;;;;;;4994511;28;20192;-67
2022/07/27 01:14:38;;;;;;;23.53;22.07;;;17.10;99.90;;;;;;4994100;28;20192;-67
2022/07/27 01:17:04;;;;;;;16.67;15.70;;;17.10;99.90;;;;;;4993101;28;20184;-67
2022/07/27 01:19:30;;;;;;;14.27;13.47;;;17.20;99.90;;;;;;4993944;28;20342;-68
2022/07/27 01:21:56;;;;;;;10.67;9.80;;;17.20;99.90;;;;;;4976678;28;20279;-67
2022/07/27 01:24:21;;;;;;;9.03;8.30;;;17.10;99.90;;;;;;4993929;28;20260;-67
2022/07/27 01:26:47;;;;;;;12.70;12.03;;;17.10;99.90;;;;;;4976006;28;20677;-67
2022/07/27 01:29:13;;;;;;;66.93;63.27;;;17.00;99.90;;;;;;4993936;28;20184;-67
2022/07/27 01:31:39;;;;;;;175.57;166.33;;;16.90;99.90;;;;;;4993576;28;20204;-67
2022/07/27 01:34:05;;;;;;;192.83;182.63;;;16.90;99.90;;;;;;4993255;28;20665;-67
2022/07/27 01:36:31;;;;;;;239.13;226.53;;;16.80;99.90;;;;;;4993825;28;20649;-67
2022/07/27 01:38:56;;;;;;;214.70;203.43;;;16.70;99.90;;;;;;4992906;28;20219;-67
2022/07/27 01:41:22;;;;;;;267.97;253.73;;;16.70;99.90;;;;;;4993706;28;20204;-68
2022/07/27 01:43:48;;;;;;;270.93;256.30;;;16.60;99.90;;;;;;4993220;28;20664;-68
2022/07/27 01:46:14;;;;;;;273.90;258.70;;;16.60;99.90;;;;;;4993673;28;20173;-68
2022/07/27 01:48:40;;;;;;;243.17;230.53;;;16.40;99.90;;;;;;4992748;28;20681;-68
2022/07/27 01:51:06;;;;;;;145.70;138.20;;;16.20;99.90;;;;;;4992434;28;20628;-68
2022/07/27 01:53:32;;;;;;;111.03;105.37;;;16.20;99.90;;;;;;4993306;28;20184;-68
2022/07/27 01:55:57;;;;;;;91.43;86.60;;;16.20;99.90;;;;;;4992725;28;20188;-68
2022/07/27 01:58:23;;;;;;;95.23;90.43;;;16.20;99.90;;;;;;4992550;28;20212;-68
2022/07/27 02:00:49;;;;;;;102.93;97.40;;;16.10;99.90;;;;;;4993199;28;20239;-68
2022/07/27 02:03:15;;;;;;;64.50;61.20;;;16.10;99.90;;;;;;4993539;28;20653;-69
2022/07/27 02:05:41;;;;;;;50.00;47.43;;;16.10;99.90;;;;;;4993399;28;20213;-68
2022/07/27 02:08:07;;;;;;;38.87;36.73;;;16.10;99.90;;;;;;4992297;28;20239;-68
2022/07/27 02:10:35;;;;;;;37.90;35.97;;;16.10;99.90;;;;;;4993179;28;20254;-68
2022/07/27 02:13:01;;;;;;;47.53;45.20;;;16.10;99.90;;;;;;4993120;28;20180;-68
2022/07/27 02:15:28;;;;;;;40.83;38.83;;;16.10;99.90;;;;;;4992922;28;20177;-68
2022/07/27 02:17:55;;;;;;;50.27;47.70;;;16.10;99.90;;;;;;4992013;28;20218;-68
2022/07/27 02:20:24;;;;;;;48.03;45.60;;;15.90;99.90;;;;;;4993096;28;20193;-68
2022/07/27 02:22:50;;;;;;;40.77;38.47;;;15.90;99.90;;;;;;4992546;28;20646;-68
2022/07/27 02:25:18;;;;;;;30.23;28.77;;;15.80;99.90;;;;;;4992805;28;20184;-67
2022/07/27 02:27:45;;;;;;;32.97;31.23;;;15.80;99.90;;;;;;4992414;28;20624;-67
2022/07/27 02:30:12;;;;;;;30.90;29.37;;;15.80;99.90;;;;;;4992442;28;20700;-67
2022/07/27 02:32:39;;;;;;;26.77;25.17;;;15.80;99.90;;;;;;4992476;28;20177;-67
2022/07/27 02:35:06;;;;;;;19.73;18.70;;;15.80;99.90;;;;;;4992578;28;20211;-67
2022/07/27 02:37:32;;;;;;;22.53;21.37;;;15.80;99.90;;;;;;4991815;28;20191;-68
2022/07/27 02:39:57;;;;;;;30.23;28.57;;;15.80;99.90;;;;;;4992813;28;20283;-67
2022/07/27 02:42:23;;;;;;;27.03;25.70;;;15.80;99.90;;;;;;4992746;28;20184;-67
2022/07/27 02:44:55;;;;;;;13.63;12.93;;;15.60;99.90;;;;;;4991898;28;20283;-67
2022/07/27 02:47:21;;;;;;;13.43;12.50;;;15.60;99.90;;;;;;4991938;28;20653;-67
2022/07/27 02:49:47;;;;;;;10.87;10.27;;;15.60;99.90;;;;;;4992614;28;20211;-67
2022/07/27 02:52:12;;;;;;;17.27;16.43;;;15.50;99.90;;;;;;4992544;28;20677;-67
2022/07/27 02:54:38;;;;;;;21.23;20.13;;;15.50;99.90;;;;;;4991253;28;20242;-67
2022/07/27 02:57:04;;;;;;;16.63;15.83;;;15.50;99.90;;;;;;4991479;28;20227;-67
2022/07/27 02:59:30;;;;;;;17.27;16.37;;;15.50;99.90;;;;;;4992070;28;20239;-67
2022/07/27 03:01:56;;;;;;;17.20;16.40;;;15.50;99.90;;;;;;4992356;28;20212;-67
2022/07/27 03:04:22;;;;;;;16.30;15.40;;;15.50;99.90;;;;;;4991887;28;20173;-67
2022/07/27 03:06:47;;;;;;;20.00;19.03;;;15.50;99.90;;;;;;4991605;28;20187;-66
2022/07/27 03:09:13;;;;;;;16.63;15.57;;;15.50;99.90;;;;;;4992239;28;20180;-68
2022/07/27 03:11:39;;;;;;;16.83;16.03;;;15.70;99.90;;;;;;4992228;28;20200;-66
2022/07/27 03:14:05;;;;;;;20.33;19.13;;;15.80;99.90;;;;;;4990975;28;20211;-66
2022/07/27 03:16:31;;;;;;;27.13;25.80;;;15.80;99.90;;;;;;4992005;28;20199;-66
2022/07/27 03:18:57;;;;;;;51.10;48.17;;;15.80;99.90;;;;;;4990963;28;20699;-66
2022/07/27 03:21:23;;;;;;;49.77;47.27;;;15.70;99.90;;;;;;4991842;28;20208;-66
2022/07/27 03:23:49;;;;;;;36.40;34.60;;;15.50;99.90;;;;;;4991828;28;20183;-66
2022/07/27 03:26:17;;;;;;;33.67;31.97;;;15.50;99.90;;;;;;4974686;28;20268;-69
2022/07/27 03:28:42;;;;;;;28.57;27.07;;;15.40;99.90;;;;;;4990773;28;20189;-66
2022/07/27 03:31:08;;;;;;;24.90;23.60;;;15.40;99.90;;;;;;4974597;28;20287;-67
2022/07/27 03:33:35;;;;;;;23.07;21.43;;;15.50;99.90;;;;;;4974618;28;20620;-67
2022/07/27 03:36:01;;;;;;;26.97;25.33;;;15.50;99.90;;;;;;4991625;28;20533;-67
2022/07/27 03:38:27;;;;;;;20.27;19.27;;;15.50;99.90;;;;;;4991051;28;20212;-67
2022/07/27 03:40:53;;;;;;;20.63;19.43;;;15.40;99.90;;;;;;4990676;28;20204;-67
2022/07/27 03:43:19;;;;;;;23.47;22.10;;;15.30;99.90;;;;;;4991812;28;20183;-67
2022/07/27 03:45:45;;;;;;;34.23;32.30;;;15.20;99.90;;;;;;4991054;28;20727;-67
2022/07/27 03:48:11;;;;;;;49.73;46.73;;;15.20;99.90;;;;;;4991113;28;20552;-67
2022/07/27 03:50:37;;;;;;;64.73;61.57;;;15.20;99.90;;;;;;4991590;28;20294;-67
2022/07/27 03:53:03;;;;;;;71.30;67.60;;;15.10;99.90;;;;;;4974250;28;20185;-67
2022/07/27 03:55:29;;;;;;;38.70;36.60;;;15.10;99.90;;;;;;4991942;28;20180;-67
2022/07/27 03:57:55;;;;;;;20.00;18.90;;;15.20;99.90;;;;;;4990423;28;20426;-67
2022/07/27 04:00:21;;;;;;;77.77;74.00;;;15.40;99.90;;;;;;5022366;22;20310;-65
2022/07/27 04:02:47;;;;;;;67.87;64.47;;;15.40;99.90;;;;;;5030784;28;20171;-66
2022/07/27 04:05:13;;;;;;;65.90;62.57;;;15.40;99.90;;;;;;5030821;28;20186;-65
2022/07/27 04:07:39;;;;;;;26.50;24.70;;;15.40;99.90;;;;;;5021537;28;20183;-65
2022/07/27 04:10:06;;;;;;;17.00;16.10;;;15.50;99.90;;;;;;5030138;28;20199;-66
2022/07/27 04:12:36;;;;;;;15.70;14.90;;;15.50;99.90;;;;;;5030601;28;20844;-67
2022/07/27 04:15:02;;;;;;;26.67;24.90;;;15.60;99.90;;;;;;5030684;28;20179;-66
2022/07/27 04:17:29;;;;;;;39.53;36.80;;;15.60;99.90;;;;;;5026339;28;20554;-68
2022/07/27 04:19:55;;;;;;;39.70;37.30;;;15.60;99.90;;;;;;5024333;28;20223;-66
2022/07/27 04:22:20;;;;;;;25.13;23.20;;;15.70;99.90;;;;;;5011364;28;20190;-66
2022/07/27 04:24:46;;;;;;;18.73;17.60;;;15.80;99.90;;;;;;5018030;28;20233;-66
2022/07/27 04:27:13;;;;;;;12.13;11.20;;;15.80;99.90;;;;;;5016895;28;20186;-66
2022/07/27 04:29:39;;;;;;;9.57;8.87;;;15.90;99.90;;;;;;5027346;28;20187;-66
2022/07/27 04:32:05;;;;;;;10.57;9.80;;;15.90;99.90;;;;;;5027237;28;20206;-68
2022/07/27 04:34:31;;;;;;;9.30;8.50;;;16.00;99.90;;;;;;5029109;28;20218;-68
2022/07/27 04:36:57;;;;;;;11.63;10.67;;;16.10;99.90;;;;;;5029418;28;20206;-68
2022/07/27 04:39:23;;;;;;;18.87;17.63;;;16.20;99.90;;;;;;5029228;28;20583;-67
2022/07/27 04:41:48;;;;;;;77.43;73.40;;;16.30;99.90;;;;;;5029166;28;20199;-67
2022/07/27 04:44:14;;;;;;;195.10;185.37;;;16.40;99.90;;;;;;5029791;28;20175;-67
2022/07/27 04:46:40;;;;;;;303.43;287.80;;;16.40;99.90;;;;;;5029897;28;20179;-66
2022/07/27 04:49:06;;;;;;;334.30;316.50;;;16.50;99.90;;;;;;5028188;28;20183;-66
2022/07/27 04:51:31;;;;;;;310.87;294.20;;;16.60;99.90;;;;;;5029850;28;20203;-67
2022/07/27 04:53:57;;;;;;;245.83;233.00;;;16.70;99.90;;;;;;5032589;28;20235;-66
2022/07/27 04:56:23;;;;;;;178.23;168.77;;;16.80;99.90;;;;;;5032616;28;20179;-66
2022/07/27 04:58:49;;;;;;;83.63;79.33;;;16.90;99.90;;;;;;5032417;28;20264;-66
2022/07/27 05:01:14;;;;;;;46.77;43.93;;;17.00;99.90;;;;;;5033035;28;20305;-66
2022/07/27 05:03:41;;;;;;;16.50;15.00;;;17.10;99.90;;;;;;5031505;28;20179;-65
2022/07/27 05:06:07;;;;;;;15.43;14.50;;;17.20;99.90;;;;;;5032886;28;20176;-66
2022/07/27 05:08:34;;;;;;;9.57;8.97;;;17.20;99.90;;;;;;5032456;28;20556;-66
2022/07/27 05:11:00;;;;;;;11.30;10.43;;;17.20;99.90;;;;;;5032836;28;20210;-66
2022/07/27 05:13:26;;;;;;;9.57;8.97;;;17.20;99.90;;;;;;5033553;28;20623;-66
2022/07/27 05:15:51;;;;;;;10.77;9.97;;;17.30;99.90;;;;;;5033825;28;20214;-66
2022/07/27 05:18:17;;;;;;;9.67;8.97;;;17.40;99.90;;;;;;5031841;28;20313;-67
2022/07/27 05:20:43;;;;;;;10.57;9.77;;;17.50;99.90;;;;;;5033045;28;20199;-66
2022/07/27 05:23:10;;;;;;;13.23;12.47;;;17.50;99.90;;;;;;5033292;28;20646;-67
2022/07/27 05:25:36;;;;;;;41.33;39.10;;;17.60;99.90;;;;;;5031943;28;20171;-65
2022/07/27 05:28:01;;;;;;;89.23;84.73;;;17.70;99.90;;;;;;5032411;28;20237;-67
2022/07/27 05:30:27;;;;;;;84.37;80.27;;;17.70;99.90;;;;;;5033176;28;20575;-66
2022/07/27 05:32:53;;;;;;;79.67;75.43;;;17.60;99.90;;;;;;5032944;28;20183;-66
2022/07/27 05:35:20;;;;;;;65.53;62.13;;;17.50;99.90;;;;;;5031680;28;20547;-67
2022/07/27 05:37:46;;;;;;;66.90;63.50;;;17.40;99.90;;;;;;5031722;28;20549;-66
2022/07/27 05:40:12;;;;;;;91.00;86.50;;;17.50;99.90;;;;;;5032385;28;20199;-66
2022/07/27 05:42:42;;;;;;;96.27;91.23;;;17.60;99.90;;;;;;5033072;28;20650;-67
2022/07/27 05:45:09;;;;;;;125.23;119.17;;;17.70;99.90;;;;;;5031891;28;20189;-67
2022/07/27 05:47:34;;;;;;;129.33;122.73;;;17.80;99.90;;;;;;5031302;28;20171;-66
2022/07/27 05:50:00;;;;;;;66.47;62.93;;;18.00;99.90;;;;;;5032907;28;20187;-66
2022/07/27 05:52:26;;;;;;;35.13;33.17;;;18.10;99.90;;;;;;5032563;28;20213;-67
2022/07/27 05:54:52;;;;;;;18.83;17.80;;;18.20;99.90;;;;;;5032164;28;20179;-66
2022/07/27 05:57:18;;;;;;;13.17;12.43;;;18.30;99.90;;;;;;5032225;28;20186;-65
2022/07/27 05:59:44;;;;;;;8.02;7.60;;;18.30;99.90;;;;;;5032398;28;20222;-65
2022/07/27 06:02:09;;;;;;;7.33;6.73;;;18.30;99.90;;;;;;5031493;28;20214;-67
2022/07/27 06:04:35;;;;;;;7.17;6.63;;;18.40;99.90;;;;;;5031626;28;20659;-67
2022/07/27 06:09:45;;;;;;;11.00;10.40;;;18.70;99.90;;;;;;5031719;28;20190;-68
2022/07/27 06:12:11;;;;;;;11.23;10.23;;;18.90;99.90;;;;;;5032310;28;20262;-68
2022/07/27 06:14:37;;;;;;;13.40;12.37;;;19.10;99.90;;;;;;5031562;28;20578;-67
2022/07/27 06:17:04;;;;;;;19.13;18.13;;;19.20;99.90;;;;;;5030847;28;20183;-68
2022/07/27 06:19:30;;;;;;;23.20;21.73;;;19.40;99.90;;;;;;5031365;28;20206;-68
2022/07/27 06:21:57;;;;;;;32.03;30.08;;;19.50;99.90;;;;;;5031044;28;20567;-68
2022/07/27 06:24:23;;;;;;;45.80;42.95;;;19.60;99.90;;;;;;5031541;28;20182;-68
2022/07/27 06:26:50;;;;;;;49.88;47.28;;;19.80;99.90;;;;;;5030787;28;20639;-68
2022/07/27 06:29:16;;;;;;;32.58;30.70;;;20.00;99.90;;;;;;5032148;28;20194;-67
2022/07/27 06:31:42;;;;;;;20.80;19.50;;;20.30;99.90;;;;;;5031864;28;20630;-67
2022/07/27 06:34:08;;;;;;;8.25;7.75;;;20.50;99.90;;;;;;5032601;28;20199;-68
2022/07/27 06:36:33;;;;;;;8.23;5.97;;;20.60;99.90;;;;;;5032628;28;20182;-69
2022/07/27 06:38:59;;;;;;;7.82;7.35;;;20.70;99.90;;;;;;5031267;28;20210;-68
2022/07/27 06:41:25;;;;;;;7.90;7.40;;;20.90;99.90;;;;;;5032931;28;20281;-68
2022/07/27 06:43:51;;;;;;;7.35;6.68;;;20.90;99.90;;;;;;5031986;28;20271;-67
2022/07/27 06:46:16;;;;;;;8.80;8.13;;;21.20;99.90;;;;;;5032148;28;20191;-66
2022/07/27 06:48:42;;;;;;;7.80;7.30;;;21.30;99.90;;;;;;5031335;28;20675;-67
2022/07/27 06:51:08;;;;;;;9.15;8.57;;;21.40;99.90;;;;;;5032002;28;20587;-67
2022/07/27 06:53:35;;;;;;;7.00;6.55;;;21.40;99.90;;;;;;5031798;28;20187;-67
2022/07/27 06:56:03;;;;;;;7.25;5.88;;;21.60;99.90;;;;;;5032003;28;20183;-69
2022/07/27 06:58:31;;;;;;;7.97;7.57;;;21.80;99.90;;;;;;5029641;28;20298;-68
2022/07/27 07:00:58;;;;;;;9.32;8.50;;;22.10;99.90;;;;;;5011982;28;20218;-67
2022/07/27 07:03:24;;;;;;;7.05;6.65;;;22.20;99.90;;;;;;5011857;28;20194;-68
2022/07/27 07:05:50;;;;;;;6.65;6.05;;;22.50;99.90;;;;;;5012003;28;20656;-67
2022/07/27 07:08:16;;;;;;;6.68;6.28;;;22.70;99.90;;;;;;5011189;28;20184;-67
2022/07/27 07:10:43;;;;;;;18.13;16.80;;;22.90;99.90;;;;;;5015965;28;20575;-68
2022/07/27 07:13:10;;;;;;;12.98;12.20;;;23.20;99.90;;;;;;5022512;28;20183;-67
2022/07/27 07:15:38;;;;;;;22.73;20.60;;;23.40;99.90;;;;;;5031130;28;20803;-67
2022/07/27 07:18:05;;;;;;;12.13;11.20;;;23.40;99.90;;;;;;5029537;28;20210;-68
2022/07/27 07:20:32;;;;;;;14.93;14.05;;;23.60;99.90;;;;;;5030054;28;20203;-68
2022/07/27 07:22:58;;;;;;;14.60;13.77;;;23.80;99.90;;;;;;5031272;28;20188;-68
2022/07/27 07:25:24;;;;;;;13.13;12.32;;;23.90;99.90;;;;;;5029301;28;20187;-66
2022/07/27 07:27:50;;;;;;;17.38;16.20;;;23.70;99.90;;;;;;5027975;28;20183;-66
2022/07/27 07:30:17;;;;;;;18.27;17.33;;;23.70;99.90;;;;;;5029590;28;20218;-69
2022/07/27 07:32:42;;;;;;;15.45;14.57;;;24.00;99.90;;;;;;5030224;28;20179;-69
2022/07/27 07:35:08;;;;;;;8.25;7.53;;;24.80;99.90;;;;;;5031045;28;20179;-70
2022/07/27 07:37:34;;;;;;;9.57;8.93;;;25.40;99.90;;;;;;5030416;28;20604;-68
2022/07/27 07:40:01;;;;;;;14.07;13.07;;;25.70;99.90;;;;;;5030898;28;20272;-68
2022/07/27 07:42:27;;;;;;;12.70;11.88;;;25.40;99.90;;;;;;5033786;28;20233;-68
2022/07/27 07:44:53;;;;;;;10.00;9.02;;;25.90;99.90;;;;;;5036077;28;20576;-69
2022/07/27 07:47:18;;;;;;;9.68;8.85;;;25.90;99.90;;;;;;5032283;28;20178;-68
2022/07/27 07:49:44;;;;;;;12.45;11.73;;;26.00;99.90;;;;;;5032648;28;20241;-70
2022/07/27 07:52:10;;;;;;;13.43;12.73;;;26.40;99.90;;;;;;5032441;28;20210;-70
2022/07/27 07:54:36;;;;;;;9.95;9.13;;;26.40;99.90;;;;;;5030782;28;20179;-70
2022/07/27 07:57:02;;;;;;;7.47;7.05;;;26.40;99.90;;;;;;5030406;28;20776;-68
2022/07/27 07:59:27;;;;;;;6.85;6.43;;;26.40;99.90;;;;;;5030582;28;20256;-69
2022/07/27 08:01:53;;;;;;;6.78;6.18;;;26.20;99.90;;;;;;5029894;28;20744;-69
2022/07/27 08:04:19;;;;;;;6.65;6.15;;;26.00;99.90;;;;;;5029154;28;20183;-67
2022/07/27 08:06:45;;;;;;;12.80;11.80;;;25.90;99.90;;;;;;5029092;28;20648;-68
2022/07/27 08:09:15;;;;;;;25.45;23.92;;;25.80;99.90;;;;;;5029333;28;20218;-69
2022/07/27 08:11:42;;;;;;;22.80;21.48;;;25.50;99.90;;;;;;5030616;28;20762;-69
2022/07/27 08:14:08;;;;;;;21.30;20.10;;;25.30;99.90;;;;;;5023740;28;20569;-69
2022/07/27 08:16:33;;;;;;;16.88;15.77;;;25.20;99.90;;;;;;5014227;28;20188;-67
2022/07/27 08:18:59;;;;;;;21.50;20.23;;;25.40;99.90;;;;;;5029312;28;20633;-70
2022/07/27 08:21:25;;;;;;;19.15;18.02;;;25.60;99.90;;;;;;5028728;28;20297;-69
2022/07/27 08:23:51;;;;;;;14.85;14.13;;;25.60;99.90;;;;;;5030414;28;20258;-70
2022/07/27 08:26:17;;;;;;;9.38;7.65;;;26.10;99.80;;;;;;5030963;28;20324;-70
2022/07/27 08:28:43;;;;;;;6.45;6.10;;;26.50;98.70;;;;;;5033376;28;20179;-68
2022/07/27 08:31:09;;;;;;;6.78;6.18;;;26.90;98.20;;;;;;5049024;28;20282;-69
2022/07/27 08:33:35;;;;;;;6.22;5.63;;;27.20;97.30;;;;;;5035980;28;20217;-74
2022/07/27 08:36:01;;;;;;;5.07;4.80;;;27.60;96.10;;;;;;5033619;28;20237;-74
2022/07/27 08:38:26;;;;;;;5.07;4.78;;;27.90;95.50;;;;;;5032191;28;20245;-74
2022/07/27 08:40:54;;;;;;;5.10;4.80;;;28.10;95.00;;;;;;5034738;28;20198;-73
2022/07/27 08:43:19;;;;;;;6.60;6.13;;;28.10;95.40;;;;;;5034493;28;20671;-74
2022/07/27 08:45:54;;;;;;;5.63;5.32;;;27.80;94.60;;;;;;5033890;28;20203;-74
2022/07/27 08:48:20;;;;;;;4.85;4.60;;;27.40;95.70;;;;;;5033853;28;20261;-74
2022/07/27 08:50:47;;;;;;;6.30;5.28;;;27.30;95.60;;;;;;5034251;28;20703;-74
2022/07/27 08:53:15;;;;;;;5.95;5.05;;;27.10;95.50;;;;;;5034017;28;20179;-74
2022/07/27 08:55:46;;;;;;;5.25;4.85;;;27.20;95.20;;;;;;5034166;28;20183;-74
2022/07/27 08:58:13;;;;;;;5.50;5.20;;;27.40;94.40;;;;;;5033014;28;20203;-74
2022/07/27 09:00:44;;;;;;;5.82;5.05;;;27.80;94.30;;;;;;5032891;28;20254;-74
2022/07/27 09:03:11;;;;;;;6.72;6.43;;;27.70;94.40;;;;;;5034109;28;20643;-74
2022/07/27 09:05:45;;;;;;;5.93;5.45;;;27.50;93.60;;;;;;5033592;28;20179;-74
2022/07/27 09:08:16;;;;;;;5.97;5.53;;;27.60;93.60;;;;;;5032308;28;20187;-75
2022/07/27 09:10:43;;;;;;;6.68;6.18;;;28.20;93.00;;;;;;5033869;28;20289;-74
2022/07/27 09:13:25;;;;;;;6.90;6.53;;;29.20;92.20;;;;;;5033841;28;20182;-74
2022/07/27 09:15:54;;;;;;;6.47;5.78;;;29.40;91.00;;;;;;5033832;28;20202;-76
2022/07/27 09:18:25;;;;;;;7.28;6.78;;;29.30;89.90;;;;;;5032779;28;20644;-75
2022/07/27 09:21:30;;;;;;;6.88;6.35;;;29.60;88.10;;;;;;5032595;28;20199;-75
2022/07/27 09:24:05;;;;;;;7.50;7.20;;;29.40;89.40;;;;;;5051364;28;20599;-75
2022/07/27 09:26:30;;;;;;;9.35;8.75;;;29.10;89.50;;;;;;5052082;28;20701;-74
2022/07/27 09:29:03;;;;;;;9.20;8.60;;;28.70;90.50;;;;;;5042874;28;20274;-75
2022/07/27 09:31:30;;;;;;;8.02;7.32;;;28.40;91.20;;;;;;5032267;28;20206;-75
2022/07/27 09:33:58;;;;;;;8.23;7.20;;;28.00;91.60;;;;;;5033332;28;20216;-75
2022/07/27 09:36:27;;;;;;;11.40;10.52;;;27.50;92.00;;;;;;5033572;28;20244;-75
2022/07/27 09:38:55;;;;;;;15.00;13.80;;;27.70;92.20;;;;;;5032525;28;20218;-76
2022/07/27 09:41:22;;;;;;;10.68;9.80;;;27.90;92.30;;;;;;5033297;28;20194;-75
2022/07/27 09:43:53;;;;;;;9.50;8.90;;;27.50;92.10;;;;;;5033494;28;20171;-75
2022/07/27 09:46:30;;;;;;;10.18;9.32;;;27.80;91.30;;;;;;5019085;28;20183;-75
2022/07/27 09:48:56;;;;;;;8.20;7.68;;;28.10;91.30;;;;;;5031310;28;20297;-75
2022/07/27 09:51:24;;;;;;;9.68;8.73;;;28.80;91.00;;;;;;5032639;28;20202;-75
2022/07/27 09:53:51;;;;;;;9.70;9.20;;;29.50;88.80;;;;;;5032013;28;20183;-75
2022/07/27 09:56:28;;;;;;;13.05;12.15;;;29.50;87.90;;;;;;5032827;28;20175;-74
2022/07/27 09:58:59;;;;;;;13.80;12.75;;;29.40;86.50;;;;;;5031826;28;20207;-76
2022/07/27 10:01:31;;;;;;;15.88;14.93;;;29.20;86.40;;;;;;5043999;22;20235;-75
2022/07/27 10:04:03;;;;;;;16.63;15.35;;;29.00;87.70;;;;;;5011615;28;20263;-78
2022/07/27 10:06:29;;;;;;;13.30;12.25;;;28.60;89.40;;;;;;5013603;28;20186;-76
2022/07/27 10:08:58;;;;;;;9.15;8.52;;;28.40;90.50;;;;;;5011980;28;20184;-75
2022/07/27 10:11:25;;;;;;;12.63;11.73;;;29.00;88.70;;;;;;5012442;28;20214;-76
2022/07/27 10:13:52;;;;;;;8.20;7.63;;;29.20;87.80;;;;;;5030215;28;20183;-78
2022/07/27 10:16:24;;;;;;;8.32;7.93;;;29.30;83.10;;;;;;5018408;28;20660;-77
2022/07/27 10:19:18;;;;;;;8.70;8.15;;;29.40;84.10;;;;;;5010660;28;20214;-76
2022/07/27 10:21:46;;;;;;;11.00;10.32;;;29.70;84.40;;;;;;5011492;28;20591;-78
2022/07/27 10:24:35;;;;;;;12.32;11.52;;;29.60;84.00;;;;;;5014229;28;20302;-78
2022/07/27 10:27:20;;;;;;;14.73;13.90;;;29.20;85.20;;;;;;5012549;28;20211;-78
2022/07/27 10:29:50;;;;;;;15.55;14.55;;;29.10;84.70;;;;;;5013040;28;20195;-77
2022/07/27 10:32:29;;;;;;;11.35;10.38;;;28.50;85.60;;;;;;5013356;28;20200;-77
2022/07/27 10:34:55;;;;;;;9.30;8.50;;;28.00;86.80;;;;;;5028831;28;20236;-81
2022/07/27 10:37:31;;;;;;;11.40;5.72;;;27.60;89.40;;;;;;5029150;28;20270;-79
2022/07/27 10:43:05;;;;;;;9.77;8.82;;;29.00;88.00;;;;;;5016696;28;20226;-80
2022/07/27 10:45:43;;;;;;;13.40;12.77;;;29.90;86.10;;;;;;5033718;28;20179;-79
2022/07/27 10:48:41;;;;;;;9.35;8.85;;;30.80;83.30;;;;;;5018575;28;20240;-80
2022/07/27 10:51:08;;;;;;;8.18;7.47;;;31.30;80.50;;;;;;5000876;28;20210;-79
2022/07/27 10:53:38;;;;;;;5.72;5.25;;;31.40;81.40;;;;;;4999871;28;20181;-79
2022/07/27 10:56:05;;;;;;;18.70;17.67;;;32.40;78.50;;;;;;5028404;28;20190;-80
2022/07/27 10:58:30;;;;;;;9.65;9.07;;;33.40;72.70;;;;;;5030114;28;20581;-77
2022/07/27 11:01:01;;;;;;;11.35;10.80;;;33.20;66.30;;;;;;5013410;28;20222;-80
2022/07/27 11:03:32;;;;;;;11.68;10.85;;;32.40;63.50;;;;;;5006242;28;20203;-80
2022/07/27 11:06:07;;;;;;;11.88;11.15;;;31.60;67.50;;;;;;4999212;28;20292;-70
2022/07/27 11:08:35;;;;;;;17.83;16.92;;;32.40;66.10;;;;;;4999067;28;20198;-71
2022/07/27 11:11:01;;;;;;;27.63;26.02;;;32.50;66.90;;;;;;5008338;28;20588;-71
2022/07/27 11:13:28;;;;;;;21.10;19.50;;;32.30;62.60;;;;;;5009908;28;20187;-71
2022/07/27 11:15:59;;;;;;;11.02;10.43;;;31.80;63.70;;;;;;5011177;28;20184;-71
2022/07/27 11:18:33;;;;;;;17.40;16.45;;;31.10;65.50;;;;;;5010646;28;20207;-70
2022/07/27 11:21:35;;;;;;;19.25;18.25;;;30.50;68.20;;;;;;5011313;28;20269;-71
2022/07/27 11:24:08;;;;;;;9.43;8.98;;;29.70;69.80;;;;;;4979961;28;20242;-71
2022/07/27 11:26:40;;;;;;;5.53;5.13;;;29.50;72.70;;;;;;5011640;28;20179;-71
2022/07/27 11:29:11;;;;;;;5.30;4.88;;;29.50;70.80;;;;;;5009928;28;20207;-72
2022/07/27 11:31:39;;;;;;;20.95;19.85;;;30.10;70.60;;;;;;5011361;28;20699;-71
2022/07/27 11:34:05;;;;;;;10.32;9.82;;;31.40;65.00;;;;;;5011171;28;20185;-71
2022/07/27 11:36:35;;;;;;;19.00;18.00;;;30.60;64.20;;;;;;5010913;28;20246;-71
2022/07/27 11:39:02;;;;;;;16.15;15.25;;;30.30;65.40;;;;;;5009437;28;20556;-71
2022/07/27 11:41:30;;;;;;;19.23;18.20;;;30.20;66.90;;;;;;5011276;28;20203;-71
2022/07/27 11:44:01;;;;;;;6.38;5.97;;;31.20;65.70;;;;;;5010525;28;20183;-71
2022/07/27 11:46:33;;;;;;;17.27;16.45;;;32.40;62.40;;;;;;5011154;28;20552;-71
2022/07/27 11:49:01;;;;;;;90.55;86.13;;;33.30;59.80;;;;;;5009513;28;20190;-71
2022/07/27 11:51:28;;;;;;;146.57;139.30;;;33.30;58.00;;;;;;5011135;28;20253;-71
2022/07/27 11:53:59;;;;;;;126.43;120.13;;;32.60;59.30;;;;;;5011081;28;20183;-71
2022/07/27 11:56:27;;;;;;;46.17;43.72;;;32.20;59.60;;;;;;5010756;28;20648;-71
2022/07/27 11:59:08;;;;;;;7.43;7.13;;;31.10;62.40;;;;;;5009937;28;20214;-71
2022/07/27 12:01:39;;;;;;;6.70;6.15;;;30.00;65.10;;;;;;5010473;28;20218;-71
2022/07/27 12:04:07;;;;;;;13.50;12.70;;;29.40;67.30;;;;;;5013063;28;20222;-71
2022/07/27 12:06:34;;;;;;;13.82;13.07;;;29.20;68.10;;;;;;5014947;28;20180;-71
2022/07/27 12:09:02;;;;;;;10.07;9.35;;;28.90;69.00;;;;;;5013578;28;20187;-71
2022/07/27 12:11:52;;;;;;;11.43;10.85;;;28.90;69.70;;;;;;5014324;28;20250;-71
2022/07/27 12:14:49;;;;;;;14.80;13.95;;;29.10;67.50;;;;;;5014722;28;20188;-71
2022/07/27 12:17:37;;;;;;;11.48;10.63;;;29.70;65.70;;;;;;5001309;28;20570;-71
2022/07/27 12:20:16;;;;;;;9.57;8.98;;;30.30;62.30;;;;;;5014269;28;20219;-71
2022/07/27 12:22:50;;;;;;;18.30;17.30;;;31.00;60.70;;;;;;5014613;28;20184;-70
2022/07/27 12:25:15;;;;;;;39.13;37.33;;;31.40;57.00;;;;;;5014431;28;20183;-70
2022/07/27 12:27:56;;;;;;;63.67;60.70;;;32.10;55.90;;;;;;5013738;28;20191;-70
2022/07/27 12:30:43;;;;;;;83.80;79.75;;;32.30;56.00;;;;;;5014361;28;20338;-71
2022/07/27 12:33:30;;;;;;;122.63;116.70;;;32.40;55.90;;;;;;5014499;28;20659;-70
2022/07/27 12:35:57;;;;;;;72.30;68.72;;;31.50;57.00;;;;;;5014348;28;20179;-70
2022/07/27 12:38:24;;;;;;;22.95;21.80;;;30.70;57.70;;;;;;5012050;28;20613;-71
2022/07/27 12:40:57;;;;;;;7.05;6.75;;;30.00;59.90;;;;;;5014112;28;20676;-70
2022/07/27 12:43:25;;;;;;;16.63;15.80;;;30.80;60.90;;;;;;5014360;28;20186;-70